createdAt,value
2024-03-02T00:01:59.724Z,9.41
2024-03-02T00:04:46.667Z,9.43
2024-03-02T00:07:33.981Z,9.44
2024-03-02T00:10:30.749Z,9.42
2024-03-02T00:13:17.803Z,9.34
2024-03-02T00:16:06.764Z,9.26
2024-03-02T00:18:56.161Z,9.17
2024-03-02T00:21:46.300Z,9.14
2024-03-02T00:24:38.202Z,9.22
2024-03-02T00:27:26.345Z,9.22
2024-03-02T00:30:32.897Z,9.14
2024-03-02T00:33:21.020Z,9.13
2024-03-02T00:36:09.540Z,9.06
2024-03-02T00:38:56.802Z,8.99
2024-03-02T00:41:46.198Z,8.87
2024-03-02T00:44:38.806Z,8.78
2024-03-02T00:47:27.553Z,8.69
2024-03-02T00:50:20.698Z,8.62
2024-03-02T00:53:14.313Z,8.59
2024-03-02T00:56:02.513Z,8.51
2024-03-02T00:58:49.180Z,8.41
2024-03-02T01:01:37.391Z,8.34
2024-03-02T01:04:24.209Z,8.28
2024-03-02T01:07:11.130Z,8.27
2024-03-02T01:09:58.191Z,8.27
2024-03-02T01:12:45.250Z,8.27
2024-03-02T01:15:32.043Z,8.25
2024-03-02T01:18:20.111Z,8.22
2024-03-02T01:21:07.381Z,8.18
2024-03-02T01:23:54.751Z,8.15
2024-03-02T01:26:42.154Z,8.11
2024-03-02T01:29:28.737Z,8.08
2024-03-02T01:32:15.657Z,8.08
2024-03-02T01:35:02.645Z,8.10
2024-03-02T01:37:49.496Z,8.08
2024-03-02T01:40:37.148Z,8.06
2024-03-02T01:43:24.178Z,8.04
2024-03-02T01:46:11.187Z,8.01
2024-03-02T01:48:58.244Z,8.03
2024-03-02T01:51:45.622Z,8.02
2024-03-02T01:54:32.712Z,8.01
2024-03-02T01:57:20.436Z,8.00
2024-03-02T02:00:08.584Z,8.00
2024-03-02T02:02:59.274Z,7.99
2024-03-02T02:05:47.201Z,7.96
2024-03-02T02:08:34.166Z,7.94
2024-03-02T02:11:21.191Z,7.94
2024-03-02T02:14:08.723Z,7.92
2024-03-02T02:16:55.743Z,7.90
2024-03-02T02:19:42.942Z,7.88
2024-03-02T02:22:32.678Z,7.84
2024-03-02T02:25:19.458Z,7.80
2024-03-02T02:28:06.753Z,7.75
2024-03-02T02:30:57.599Z,7.71
2024-03-02T02:33:44.693Z,7.71
2024-03-02T02:36:31.468Z,7.78
2024-03-02T02:39:19.392Z,7.87
2024-03-02T02:42:06.891Z,7.97
2024-03-02T02:44:53.261Z,8.13
2024-03-02T02:47:40.607Z,8.27
2024-03-02T02:50:27.488Z,8.35
2024-03-02T02:53:14.569Z,8.41
2024-03-02T02:56:04.085Z,8.46
2024-03-02T02:58:51.251Z,8.54
2024-03-02T03:01:38.377Z,8.60
2024-03-02T03:04:25.168Z,8.63
2024-03-02T03:07:12.411Z,8.64
2024-03-02T03:10:01.050Z,8.64
2024-03-02T03:12:48.597Z,8.53
2024-03-02T03:15:38.749Z,8.38
2024-03-02T03:18:25.523Z,8.26
2024-03-02T03:21:12.314Z,8.18
2024-03-02T03:24:01.714Z,8.12
2024-03-02T03:26:48.748Z,8.09
2024-03-02T03:29:37.628Z,8.09
2024-03-02T03:32:24.361Z,8.08
2024-03-02T03:35:11.646Z,8.07
2024-03-02T03:37:58.386Z,8.04
2024-03-02T03:40:46.200Z,8.03
2024-03-02T03:43:33.318Z,8.06
2024-03-02T03:46:22.061Z,8.08
2024-03-02T03:49:09.442Z,8.10
2024-03-02T03:51:56.297Z,8.09
2024-03-02T03:54:44.290Z,8.07
2024-03-02T03:57:31.425Z,8.06
2024-03-02T04:00:18.749Z,8.10
2024-03-02T04:03:05.991Z,8.14
2024-03-02T04:05:52.623Z,8.18
2024-03-02T04:08:39.636Z,8.19
2024-03-02T04:11:26.460Z,8.22
2024-03-02T04:14:13.808Z,8.23
2024-03-02T04:17:01.434Z,8.24
2024-03-02T04:19:49.700Z,8.34
2024-03-02T04:22:37.308Z,8.51
2024-03-02T04:25:24.079Z,8.66
2024-03-02T04:28:11.227Z,8.75
2024-03-02T04:30:59.371Z,8.86
2024-03-02T04:33:46.171Z,8.94
2024-03-02T04:36:33.188Z,8.99
2024-03-02T04:39:20.432Z,9.04
2024-03-02T04:42:08.098Z,9.05
2024-03-02T04:44:54.793Z,9.06
2024-03-02T04:47:41.661Z,9.09
2024-03-02T04:50:28.454Z,9.11
2024-03-02T04:53:15.233Z,9.16
2024-03-02T04:56:20.733Z,9.19
2024-03-02T04:59:08.164Z,9.21
2024-03-02T05:01:55.134Z,9.21
2024-03-02T05:04:43.245Z,9.22
2024-03-02T05:07:30.362Z,9.21
2024-03-02T05:10:19.938Z,9.23
2024-03-02T05:13:06.870Z,9.25
2024-03-02T05:15:53.589Z,9.25
2024-03-02T05:18:40.808Z,9.26
2024-03-02T05:21:27.837Z,9.23
2024-03-02T05:24:14.865Z,9.22
2024-03-02T05:27:01.854Z,9.20
2024-03-02T05:29:49.526Z,9.18
2024-03-02T05:32:36.159Z,9.16
2024-03-02T05:35:23.202Z,9.16
2024-03-02T05:38:10.289Z,9.17
2024-03-02T05:40:57.387Z,9.10
2024-03-02T05:43:44.358Z,9.09
2024-03-02T05:46:31.345Z,9.16
2024-03-02T05:49:18.330Z,9.23
2024-03-02T05:52:05.535Z,9.27
2024-03-02T05:54:52.871Z,9.30
2024-03-02T05:57:45.510Z,9.31
2024-03-02T06:00:33.003Z,9.34
2024-03-02T06:03:20.242Z,9.37
2024-03-02T06:06:07.298Z,9.41
2024-03-02T06:08:54.366Z,9.48
2024-03-02T06:11:42.506Z,9.52
2024-03-02T06:14:29.733Z,9.58
2024-03-02T06:17:16.617Z,9.61
2024-03-02T06:20:04.114Z,9.62
2024-03-02T06:22:51.690Z,9.64
2024-03-02T06:25:38.599Z,9.66
2024-03-02T06:28:25.406Z,9.63
2024-03-02T06:31:12.519Z,9.64
2024-03-02T06:33:59.421Z,9.71
2024-03-02T06:36:46.465Z,9.75
2024-03-02T06:39:35.432Z,9.78
2024-03-02T06:42:22.394Z,9.82
2024-03-02T06:45:09.481Z,9.88
2024-03-02T06:47:56.693Z,9.92
2024-03-02T06:50:46.374Z,9.92
2024-03-02T06:53:35.865Z,9.90
2024-03-02T06:56:22.775Z,9.92
2024-03-02T06:59:11.849Z,9.99
2024-03-02T07:01:59.289Z,10.01
2024-03-02T07:04:46.638Z,10.00
2024-03-02T07:07:34.635Z,10.10
2024-03-02T07:10:24.705Z,10.19
2024-03-02T07:13:11.691Z,10.29
2024-03-02T07:16:04.291Z,10.33
2024-03-02T07:18:53.070Z,10.38
2024-03-02T07:21:40.280Z,10.31
2024-03-02T07:24:29.111Z,10.29
2024-03-02T07:27:19.460Z,10.37
2024-03-02T07:30:07.558Z,10.49
2024-03-02T07:32:54.695Z,10.56
2024-03-02T07:35:41.676Z,10.64
2024-03-02T07:38:29.991Z,10.69
2024-03-02T07:41:20.214Z,10.59
2024-03-02T07:44:09.807Z,10.47
2024-03-02T07:46:56.592Z,10.37
2024-03-02T07:49:43.363Z,10.34
2024-03-02T07:52:30.473Z,10.49
2024-03-02T07:55:18.059Z,10.59
2024-03-02T07:58:05.190Z,10.66
2024-03-02T08:00:55.303Z,10.80
2024-03-02T08:03:42.494Z,10.94
2024-03-02T08:06:29.723Z,11.09
2024-03-02T08:09:16.696Z,11.14
2024-03-02T08:12:04.411Z,11.13
2024-03-02T08:14:51.366Z,11.15
2024-03-02T08:17:38.703Z,11.21
2024-03-02T08:20:25.907Z,11.19
2024-03-02T08:23:12.924Z,11.16
2024-03-02T08:25:59.701Z,11.19
2024-03-02T08:28:48.512Z,11.29
2024-03-02T08:31:37.575Z,11.43
2024-03-02T08:34:25.833Z,11.53
2024-03-02T08:37:12.883Z,11.57
2024-03-02T08:40:00.279Z,11.66
2024-03-02T08:42:48.587Z,11.72
2024-03-02T08:45:38.735Z,11.70
2024-03-02T08:48:27.662Z,11.66
2024-03-02T08:51:14.428Z,11.62
2024-03-02T08:54:03.366Z,11.59
2024-03-02T08:56:51.428Z,11.59
2024-03-02T08:59:38.331Z,11.58
2024-03-02T09:02:27.429Z,11.63
2024-03-02T09:05:17.321Z,11.69
2024-03-02T09:08:10.795Z,11.79
2024-03-02T09:10:57.992Z,11.87
2024-03-02T09:13:45.592Z,11.89
2024-03-02T09:16:32.752Z,11.92
2024-03-02T09:19:20.924Z,11.98
2024-03-02T09:22:09.661Z,12.00
2024-03-02T09:24:56.574Z,12.01
2024-03-02T09:27:45.846Z,12.05
2024-03-02T09:30:33.223Z,12.18
2024-03-02T09:33:20.964Z,12.28
2024-03-02T09:36:18.127Z,12.34
2024-03-02T09:39:06.600Z,12.35
2024-03-02T09:41:54.798Z,12.41
2024-03-02T09:44:44.086Z,12.54
2024-03-02T09:47:30.873Z,12.57
2024-03-02T09:50:18.472Z,12.60
2024-03-02T09:53:08.966Z,12.60
2024-03-02T09:55:56.255Z,12.65
2024-03-02T09:58:45.816Z,12.68
2024-03-02T10:01:33.629Z,12.76
2024-03-02T10:04:20.753Z,12.75
2024-03-02T10:07:16.637Z,12.74
2024-03-02T10:10:18.963Z,12.79
2024-03-02T10:13:06.945Z,12.80
2024-03-02T10:15:55.789Z,12.76
2024-03-02T10:18:53.247Z,12.86
2024-03-02T10:21:44.730Z,12.90
2024-03-02T10:24:41.009Z,12.88
2024-03-02T10:27:29.125Z,12.81
2024-03-02T10:30:16.652Z,12.72
2024-03-02T10:33:04.671Z,12.74
2024-03-02T10:35:51.764Z,12.77
2024-03-02T10:38:42.185Z,12.81
2024-03-02T10:41:30.236Z,12.89
2024-03-02T10:44:19.920Z,12.91
2024-03-02T10:47:07.228Z,12.90
2024-03-02T10:49:55.612Z,12.93
2024-03-02T10:52:43.966Z,12.91
2024-03-02T10:55:30.951Z,12.90
2024-03-02T10:58:18.497Z,12.96
2024-03-02T11:01:07.286Z,12.98
2024-03-02T11:03:56.063Z,12.96
2024-03-02T11:06:48.104Z,12.88
2024-03-02T11:09:37.041Z,12.86
2024-03-02T11:12:30.373Z,12.78
2024-03-02T11:15:23.079Z,12.70
2024-03-02T11:18:10.470Z,12.72
2024-03-02T11:20:57.475Z,12.76
2024-03-02T11:23:45.415Z,12.79
2024-03-02T11:26:40.461Z,12.78
2024-03-02T11:29:36.506Z,12.86
2024-03-02T11:32:26.274Z,12.87
2024-03-02T11:35:13.745Z,12.88
2024-03-02T11:38:02.540Z,12.85
2024-03-02T11:40:49.828Z,12.82
2024-03-02T11:43:40.945Z,12.82
2024-03-02T11:46:28.094Z,12.88
2024-03-02T11:49:21.862Z,12.93
2024-03-02T11:52:10.697Z,12.96
2024-03-02T11:54:58.326Z,13.04
2024-03-02T11:57:45.524Z,13.14
2024-03-02T12:00:32.862Z,13.18
2024-03-02T12:03:22.370Z,13.24
2024-03-02T12:06:12.029Z,13.26
2024-03-02T12:08:59.129Z,13.34
2024-03-02T12:11:46.106Z,13.39
2024-03-02T12:14:34.243Z,13.43
2024-03-02T12:17:22.517Z,13.43
2024-03-02T12:20:13.419Z,13.44
2024-03-02T12:23:01.909Z,13.46
2024-03-02T12:25:49.404Z,13.39
2024-03-02T12:28:36.486Z,13.36
2024-03-02T12:31:23.700Z,13.38
2024-03-02T12:34:10.613Z,13.42
2024-03-02T12:36:57.565Z,13.39
2024-03-02T12:39:48.728Z,13.38
2024-03-02T12:42:38.958Z,13.39
2024-03-02T12:45:28.592Z,13.37
2024-03-02T12:48:16.174Z,13.33
2024-03-02T12:51:06.819Z,13.30
2024-03-02T12:53:56.107Z,13.28
2024-03-02T12:56:47.439Z,13.25
2024-03-02T12:59:34.718Z,13.22
2024-03-02T13:02:21.746Z,13.23
2024-03-02T13:05:12.628Z,13.22
2024-03-02T13:08:00.965Z,13.25
2024-03-02T13:10:48.058Z,13.28
2024-03-02T13:13:35.848Z,13.28
2024-03-02T13:16:32.705Z,13.31
2024-03-02T13:19:21.642Z,13.31
2024-03-02T13:22:09.098Z,13.33
2024-03-02T13:24:56.297Z,13.29
2024-03-02T13:27:44.604Z,13.24
2024-03-02T13:30:31.560Z,13.23
2024-03-02T13:33:23.606Z,13.16
2024-03-02T13:36:11.609Z,13.09
2024-03-02T13:38:59.580Z,12.99
2024-03-02T13:41:53.937Z,12.98
2024-03-02T13:44:41.004Z,12.97
2024-03-02T13:47:28.862Z,12.93
2024-03-02T13:50:16.314Z,12.98
2024-03-02T13:53:04.451Z,12.92
2024-03-02T13:55:51.256Z,12.96
2024-03-02T13:58:38.480Z,12.98
2024-03-02T14:01:25.674Z,12.99
2024-03-02T14:04:13.948Z,13.01
2024-03-02T14:07:04.611Z,13.05
2024-03-02T14:09:51.778Z,13.07
2024-03-02T14:12:39.441Z,13.11
2024-03-02T14:15:26.409Z,13.12
2024-03-02T14:18:13.327Z,13.13
2024-03-02T14:21:00.340Z,13.16
2024-03-02T14:23:47.198Z,13.16
2024-03-02T14:26:34.570Z,13.14
2024-03-02T14:29:21.346Z,13.07
2024-03-02T14:32:08.518Z,13.08
2024-03-02T14:34:55.579Z,13.12
2024-03-02T14:37:43.679Z,13.16
2024-03-02T14:40:31.087Z,13.22
2024-03-02T14:43:18.061Z,13.26
2024-03-02T14:46:04.980Z,13.24
2024-03-02T14:48:52.250Z,13.19
2024-03-02T14:51:42.274Z,13.09
2024-03-02T14:54:29.519Z,13.08
2024-03-02T14:57:16.373Z,13.07
2024-03-02T15:00:04.029Z,13.10
2024-03-02T15:02:51.657Z,13.10
2024-03-02T15:05:40.250Z,13.14
2024-03-02T15:08:26.945Z,13.17
2024-03-02T15:11:14.698Z,13.09
2024-03-02T15:14:01.869Z,13.02
2024-03-02T15:16:49.765Z,12.96
2024-03-02T15:19:36.652Z,12.94
2024-03-02T15:22:24.733Z,12.99
2024-03-02T15:25:11.718Z,12.92
2024-03-02T15:27:58.639Z,12.87
2024-03-02T15:30:48.270Z,12.93
2024-03-02T15:33:37.125Z,13.00
2024-03-02T15:36:24.840Z,13.04
2024-03-02T15:39:16.141Z,12.94
2024-03-02T15:42:05.070Z,12.78
2024-03-02T15:44:51.996Z,12.68
2024-03-02T15:47:39.148Z,12.58
2024-03-02T15:50:26.177Z,12.50
2024-03-02T15:53:14.455Z,12.41
2024-03-02T15:56:01.241Z,12.30
2024-03-02T15:58:48.357Z,12.21
2024-03-02T16:01:35.653Z,12.14
2024-03-02T16:04:23.916Z,12.09
2024-03-02T16:07:10.754Z,12.09
2024-03-02T16:09:57.820Z,12.17
2024-03-02T16:12:44.764Z,12.22
2024-03-02T16:15:35.395Z,12.21
2024-03-02T16:18:22.547Z,12.24
2024-03-02T16:21:09.991Z,12.33
2024-03-02T16:23:56.929Z,12.33
2024-03-02T16:26:43.686Z,12.33
2024-03-02T16:29:30.546Z,12.39
2024-03-02T16:32:17.525Z,12.45
2024-03-02T16:35:05.056Z,12.47
2024-03-02T16:37:53.584Z,12.52
2024-03-02T16:40:41.751Z,12.56
2024-03-02T16:43:28.683Z,12.55
2024-03-02T16:46:15.430Z,12.54
2024-03-02T16:49:02.403Z,12.55
2024-03-02T16:51:52.142Z,12.57
2024-03-02T16:54:39.671Z,12.56
2024-03-02T16:57:26.874Z,12.53
2024-03-02T17:00:14.803Z,12.52
2024-03-02T17:03:01.541Z,12.53
2024-03-02T17:05:49.033Z,12.48
2024-03-02T17:08:38.094Z,12.36
2024-03-02T17:11:24.791Z,12.30
2024-03-02T17:14:15.569Z,12.23
2024-03-02T17:17:02.998Z,12.22
2024-03-02T17:19:49.691Z,12.21
2024-03-02T17:22:37.181Z,12.20
2024-03-02T17:25:24.053Z,12.17
2024-03-02T17:28:25.136Z,12.16
2024-03-02T17:31:12.365Z,12.17
2024-03-02T17:33:59.380Z,12.14
2024-03-02T17:36:46.398Z,12.10
2024-03-02T17:39:36.172Z,12.10
2024-03-02T17:42:23.431Z,12.07
2024-03-02T17:45:12.953Z,12.02
2024-03-02T17:48:00.672Z,11.96
2024-03-02T17:50:48.107Z,11.92
2024-03-02T17:53:37.997Z,11.92
2024-03-02T17:56:25.031Z,11.95
2024-03-02T17:59:12.575Z,11.93
2024-03-02T18:02:04.929Z,11.90
2024-03-02T18:04:51.661Z,11.89
2024-03-02T18:07:38.744Z,11.88
2024-03-02T18:10:26.071Z,11.85
2024-03-02T18:13:13.530Z,11.80
2024-03-02T18:16:00.957Z,11.79
2024-03-02T18:18:49.560Z,11.81
2024-03-02T18:21:37.416Z,11.79
2024-03-02T18:24:27.738Z,11.68
2024-03-02T18:27:14.506Z,11.56
2024-03-02T18:30:01.255Z,11.47
2024-03-02T18:32:48.363Z,11.36
2024-03-02T18:35:37.542Z,11.29
2024-03-02T18:38:24.830Z,11.28
2024-03-02T18:41:11.813Z,11.31
2024-03-02T18:43:59.197Z,11.37
2024-03-02T18:46:48.212Z,11.41
2024-03-02T18:49:36.106Z,11.42
2024-03-02T18:52:23.667Z,11.41
2024-03-02T18:55:12.825Z,11.38
2024-03-02T18:58:00.393Z,11.35
2024-03-02T19:00:47.636Z,11.31
2024-03-02T19:03:36.458Z,11.27
2024-03-02T19:06:23.620Z,11.29
2024-03-02T19:09:11.337Z,11.27
2024-03-02T19:11:58.252Z,11.24
2024-03-02T19:14:47.183Z,11.21
2024-03-02T19:17:34.593Z,11.17
2024-03-02T19:20:21.559Z,11.08
2024-03-02T19:23:12.148Z,10.96
2024-03-02T19:26:02.571Z,10.89
2024-03-02T19:28:49.649Z,10.88
2024-03-02T19:31:37.366Z,10.87
2024-03-02T19:34:25.229Z,10.86
2024-03-02T19:37:12.475Z,10.78
2024-03-02T19:39:59.706Z,10.74
2024-03-02T19:42:49.130Z,10.65
2024-03-02T19:45:36.094Z,10.57
2024-03-02T19:48:23.867Z,10.53
2024-03-02T19:51:10.734Z,10.49
2024-03-02T19:53:59.164Z,10.50
2024-03-02T19:56:46.847Z,10.54
2024-03-02T19:59:34.203Z,10.49
2024-03-02T20:02:23.356Z,10.41
2024-03-02T20:05:12.292Z,10.38
2024-03-02T20:07:59.608Z,10.31
2024-03-02T20:10:48.019Z,10.18
2024-03-02T20:13:35.986Z,10.07
2024-03-02T20:16:22.846Z,10.01
2024-03-02T20:19:10.286Z,10.00
2024-03-02T20:21:57.239Z,9.98
2024-03-02T20:24:44.330Z,9.93
2024-03-02T20:27:31.458Z,9.86
2024-03-02T20:30:18.697Z,9.83
2024-03-02T20:33:05.788Z,9.81
2024-03-02T20:35:52.848Z,9.82
2024-03-02T20:38:39.766Z,9.81
2024-03-02T20:41:27.262Z,9.75
2024-03-02T20:44:16.615Z,9.70
2024-03-02T20:47:04.210Z,9.67
2024-03-02T20:49:52.531Z,9.63
2024-03-02T20:52:39.683Z,9.60
2024-03-02T20:55:26.584Z,9.58
2024-03-02T20:58:15.165Z,9.51
2024-03-02T21:01:02.381Z,9.47
2024-03-02T21:03:49.257Z,9.47
2024-03-02T21:06:36.367Z,9.48
2024-03-02T21:09:23.170Z,9.52
2024-03-02T21:12:10.048Z,9.50
2024-03-02T21:14:57.104Z,9.51
2024-03-02T21:17:47.318Z,9.49
2024-03-02T21:20:34.265Z,9.47
2024-03-02T21:23:21.548Z,9.47
2024-03-02T21:26:08.626Z,9.54
2024-03-02T21:28:55.613Z,9.64
2024-03-02T21:31:42.429Z,9.76
2024-03-02T21:34:29.441Z,9.85
2024-03-02T21:37:16.363Z,9.90
2024-03-02T21:40:04.002Z,9.92
2024-03-02T21:42:56.422Z,9.92
2024-03-02T21:45:44.008Z,9.93
2024-03-02T21:48:31.170Z,9.97
2024-03-02T21:51:19.840Z,10.00
2024-03-02T21:54:06.947Z,10.01
2024-03-02T21:56:55.114Z,10.00
2024-03-02T21:59:42.808Z,10.03
2024-03-02T22:02:29.883Z,10.03
2024-03-02T22:05:16.974Z,9.96
2024-03-02T22:08:04.072Z,9.91
2024-03-02T22:10:51.020Z,9.88
2024-03-02T22:13:39.094Z,9.88
2024-03-02T22:16:27.165Z,9.87
2024-03-02T22:19:14.027Z,9.88
2024-03-02T22:22:01.020Z,9.88
2024-03-02T22:24:48.437Z,9.87
2024-03-02T22:27:39.730Z,9.91
2024-03-02T22:30:28.397Z,9.96
2024-03-02T22:33:15.492Z,9.93
2024-03-02T22:36:02.448Z,9.91
2024-03-02T22:38:49.372Z,9.89
2024-03-02T22:41:36.714Z,9.87
2024-03-02T22:44:23.708Z,9.84
2024-03-02T22:47:13.301Z,9.80
2024-03-02T22:50:05.932Z,9.74
2024-03-02T22:52:53.378Z,9.76
2024-03-02T22:55:41.096Z,9.78
2024-03-02T22:58:28.173Z,9.82
2024-03-02T23:01:15.415Z,9.84
2024-03-02T23:04:02.577Z,9.83
2024-03-02T23:06:50.065Z,9.86
2024-03-02T23:09:37.507Z,9.85
2024-03-02T23:12:31.425Z,9.84
2024-03-02T23:15:18.926Z,9.91
2024-03-02T23:18:06.300Z,10.01
2024-03-02T23:20:53.225Z,10.07
2024-03-02T23:23:41.032Z,10.10
2024-03-02T23:26:27.809Z,10.11
2024-03-02T23:29:15.052Z,10.08
2024-03-02T23:32:02.532Z,10.01
2024-03-02T23:34:49.718Z,9.98
2024-03-02T23:37:36.184Z,9.97
2024-03-02T23:40:28.902Z,10.02
2024-03-02T23:43:16.150Z,10.09
2024-03-02T23:46:02.952Z,10.11
2024-03-02T23:48:49.778Z,10.08
2024-03-02T23:51:36.713Z,10.09
2024-03-02T23:54:26.674Z,10.10
2024-03-02T23:57:14.061Z,10.08
